Thompsonville, Connecticut
Current Conditions -  °F | °C
As of 4:51 PM on Friday 31 Oct 2014 (Local Time) from KBDL Reporting Station
Overcast Overcast  
Wind Chill: 52°   Ceiling: 4200
Heat Index: 52°   Visibility: 10mi
Dew Point: 38°   Wind: 8mph
Humidity: 59%   Direction: 10°N
Pressure: 29.93"   Gusts: NA
Location:  41.9843°N, 72.5534°W
Report Text: KBDL 312051Z 01007KT 10SM OVC042 11/03 A2993 RMK AO2 SLP136 T01110033 58008
Loading
Personal Weather Stations






























Interactive Weather Map
Tropical Storm Tracking
New forecast layout! Learn more

10-Day Weather Forecast

Advertisements
Track Severe Weather on mobile